Terminal Aerodrome Forecast
Issued by NWS

Home | Current Version | Previous Version | Text Only | Print | Product List | Glossary On
Versions: 1 2 3 4 5 6 7 8 9 10 11 12 13 14 15 16 17
000
FTUS41 KAKQ 031137
TAFPHF
TAF
KPHF 031137Z 0312/0412 02004KT 5SM BR SCT015 BKN080
     FM031500 09005KT P6SM BKN030 BKN070
     FM032000 15007KT 5SM -SHRA BKN030=

USA.gov is the U.S. government's official web portal to all federal, state and local government web resources and services.